sensor_id;sensor_type;location;lat;lon;timestamp;P1;durP1;ratioP1;P2;durP2;ratioP2
47335;SDS011;33068;51.990;5.926;2024-01-11T00:01:04;37.85;;;16.65;;
47335;SDS011;33068;51.990;5.926;2024-01-11T00:03:35;45.95;;;16.65;;
47335;SDS011;33068;51.990;5.926;2024-01-11T00:06:02;38.63;;;16.40;;
47335;SDS011;33068;51.990;5.926;2024-01-11T00:08:29;35.10;;;16.17;;
47335;SDS011;33068;51.990;5.926;2024-01-11T00:10:56;34.85;;;15.43;;
47335;SDS011;33068;51.990;5.926;2024-01-11T00:13:25;38.08;;;15.80;;
47335;SDS011;33068;51.990;5.926;2024-01-11T00:15:53;32.05;;;15.85;;
47335;SDS011;33068;51.990;5.926;2024-01-11T00:18:20;32.85;;;17.00;;
47335;SDS011;33068;51.990;5.926;2024-01-11T00:20:47;37.35;;;15.43;;
47335;SDS011;33068;51.990;5.926;2024-01-11T00:23:15;33.72;;;15.20;;
47335;SDS011;33068;51.990;5.926;2024-01-11T00:25:42;31.73;;;15.27;;
47335;SDS011;33068;51.990;5.926;2024-01-11T00:28:09;31.13;;;16.00;;
47335;SDS011;33068;51.990;5.926;2024-01-11T00:30:37;32.95;;;15.55;;
47335;SDS011;33068;51.990;5.926;2024-01-11T00:33:04;32.90;;;14.85;;
47335;SDS011;33068;51.990;5.926;2024-01-11T00:35:32;30.92;;;14.35;;
47335;SDS011;33068;51.990;5.926;2024-01-11T00:37:59;37.22;;;15.63;;
47335;SDS011;33068;51.990;5.926;2024-01-11T00:40:26;38.22;;;15.90;;
47335;SDS011;33068;51.990;5.926;2024-01-11T00:42:53;32.05;;;14.13;;
47335;SDS011;33068;51.990;5.926;2024-01-11T00:45:21;30.42;;;15.00;;
47335;SDS011;33068;51.990;5.926;2024-01-11T00:47:49;27.52;;;13.75;;
47335;SDS011;33068;51.990;5.926;2024-01-11T00:50:16;39.58;;;14.82;;
47335;SDS011;33068;51.990;5.926;2024-01-11T00:52:43;36.70;;;14.63;;
47335;SDS011;33068;51.990;5.926;2024-01-11T00:55:10;34.20;;;15.55;;
47335;SDS011;33068;51.990;5.926;2024-01-11T00:57:38;29.35;;;14.40;;
47335;SDS011;33068;51.990;5.926;2024-01-11T01:00:05;30.30;;;13.85;;
47335;SDS011;33068;51.990;5.926;2024-01-11T01:02:33;35.28;;;14.70;;
47335;SDS011;33068;51.990;5.926;2024-01-11T01:05:02;33.80;;;15.30;;
47335;SDS011;33068;51.990;5.926;2024-01-11T01:07:29;31.55;;;14.82;;
47335;SDS011;33068;51.990;5.926;2024-01-11T01:09:56;31.90;;;14.07;;
47335;SDS011;33068;51.990;5.926;2024-01-11T01:12:23;29.83;;;13.93;;
47335;SDS011;33068;51.990;5.926;2024-01-11T01:14:51;30.40;;;14.18;;
47335;SDS011;33068;51.990;5.926;2024-01-11T01:17:18;26.85;;;14.10;;
47335;SDS011;33068;51.990;5.926;2024-01-11T01:19:45;26.90;;;14.63;;
47335;SDS011;33068;51.990;5.926;2024-01-11T01:22:13;33.67;;;15.50;;
47335;SDS011;33068;51.990;5.926;2024-01-11T01:24:41;33.50;;;14.55;;
47335;SDS011;33068;51.990;5.926;2024-01-11T01:27:08;33.85;;;14.60;;
47335;SDS011;33068;51.990;5.926;2024-01-11T01:29:35;33.85;;;14.02;;
47335;SDS011;33068;51.990;5.926;2024-01-11T01:32:02;33.40;;;15.20;;
47335;SDS011;33068;51.990;5.926;2024-01-11T01:34:30;27.92;;;12.40;;
47335;SDS011;33068;51.990;5.926;2024-01-11T01:36:57;32.25;;;14.73;;
47335;SDS011;33068;51.990;5.926;2024-01-11T01:39:25;34.75;;;14.95;;
47335;SDS011;33068;51.990;5.926;2024-01-11T01:41:52;34.17;;;14.82;;
47335;SDS011;33068;51.990;5.926;2024-01-11T01:44:19;34.30;;;15.40;;
47335;SDS011;33068;51.990;5.926;2024-01-11T01:46:47;32.10;;;14.70;;
47335;SDS011;33068;51.990;5.926;2024-01-11T01:49:15;31.50;;;14.20;;
47335;SDS011;33068;51.990;5.926;2024-01-11T01:51:47;33.70;;;15.02;;
47335;SDS011;33068;51.990;5.926;2024-01-11T01:54:15;32.05;;;14.82;;
47335;SDS011;33068;51.990;5.926;2024-01-11T01:56:44;33.38;;;16.00;;
47335;SDS011;33068;51.990;5.926;2024-01-11T01:59:11;33.83;;;16.13;;
47335;SDS011;33068;51.990;5.926;2024-01-11T02:01:40;29.25;;;15.25;;
47335;SDS011;33068;51.990;5.926;2024-01-11T02:04:07;31.90;;;14.77;;
47335;SDS011;33068;51.990;5.926;2024-01-11T02:06:34;36.25;;;16.05;;
47335;SDS011;33068;51.990;5.926;2024-01-11T02:09:01;33.17;;;14.77;;
47335;SDS011;33068;51.990;5.926;2024-01-11T02:11:29;32.03;;;15.27;;
47335;SDS011;33068;51.990;5.926;2024-01-11T02:13:58;28.33;;;13.90;;
47335;SDS011;33068;51.990;5.926;2024-01-11T02:16:25;27.70;;;13.65;;
47335;SDS011;33068;51.990;5.926;2024-01-11T02:18:53;32.80;;;14.95;;
47335;SDS011;33068;51.990;5.926;2024-01-11T02:21:20;32.10;;;15.05;;
47335;SDS011;33068;51.990;5.926;2024-01-11T02:23:56;35.75;;;14.65;;
47335;SDS011;33068;51.990;5.926;2024-01-11T02:26:29;33.60;;;14.68;;
47335;SDS011;33068;51.990;5.926;2024-01-11T02:28:56;29.10;;;13.27;;
47335;SDS011;33068;51.990;5.926;2024-01-11T02:31:23;39.58;;;14.82;;
47335;SDS011;33068;51.990;5.926;2024-01-11T02:33:51;32.90;;;15.25;;
47335;SDS011;33068;51.990;5.926;2024-01-11T02:36:19;29.75;;;15.75;;
47335;SDS011;33068;51.990;5.926;2024-01-11T02:38:48;30.88;;;14.15;;
47335;SDS011;33068;51.990;5.926;2024-01-11T02:41:18;32.28;;;15.00;;
47335;SDS011;33068;51.990;5.926;2024-01-11T02:43:46;35.47;;;15.63;;
47335;SDS011;33068;51.990;5.926;2024-01-11T02:46:14;33.08;;;14.85;;
47335;SDS011;33068;51.990;5.926;2024-01-11T02:48:41;29.13;;;13.55;;
47335;SDS011;33068;51.990;5.926;2024-01-11T02:51:08;35.70;;;14.27;;
47335;SDS011;33068;51.990;5.926;2024-01-11T02:53:35;31.00;;;14.25;;
47335;SDS011;33068;51.990;5.926;2024-01-11T02:56:03;29.52;;;14.40;;
47335;SDS011;33068;51.990;5.926;2024-01-11T02:58:31;35.22;;;14.60;;
47335;SDS011;33068;51.990;5.926;2024-01-11T03:00:59;32.88;;;14.40;;
47335;SDS011;33068;51.990;5.926;2024-01-11T03:03:26;32.97;;;14.90;;
47335;SDS011;33068;51.990;5.926;2024-01-11T03:05:53;32.97;;;15.25;;
47335;SDS011;33068;51.990;5.926;2024-01-11T03:08:20;31.20;;;15.68;;
47335;SDS011;33068;51.990;5.926;2024-01-11T03:10:47;34.20;;;15.02;;
47335;SDS011;33068;51.990;5.926;2024-01-11T03:13:14;34.33;;;15.77;;
47335;SDS011;33068;51.990;5.926;2024-01-11T03:15:43;48.33;;;15.27;;
47335;SDS011;33068;51.990;5.926;2024-01-11T03:18:10;39.17;;;16.95;;
47335;SDS011;33068;51.990;5.926;2024-01-11T03:20:36;40.28;;;16.58;;
47335;SDS011;33068;51.990;5.926;2024-01-11T03:23:03;34.85;;;16.10;;
47335;SDS011;33068;51.990;5.926;2024-01-11T03:25:30;37.20;;;16.63;;
47335;SDS011;33068;51.990;5.926;2024-01-11T03:27:58;31.42;;;15.98;;
47335;SDS011;33068;51.990;5.926;2024-01-11T03:30:25;38.38;;;16.55;;
47335;SDS011;33068;51.990;5.926;2024-01-11T03:32:53;36.65;;;16.05;;
47335;SDS011;33068;51.990;5.926;2024-01-11T03:35:20;32.65;;;15.93;;
47335;SDS011;33068;51.990;5.926;2024-01-11T03:37:47;36.20;;;16.55;;
47335;SDS011;33068;51.990;5.926;2024-01-11T03:40:15;34.25;;;15.57;;
47335;SDS011;33068;51.990;5.926;2024-01-11T03:42:42;36.40;;;17.60;;
47335;SDS011;33068;51.990;5.926;2024-01-11T03:45:09;37.60;;;15.75;;
47335;SDS011;33068;51.990;5.926;2024-01-11T03:47:36;33.85;;;15.00;;
47335;SDS011;33068;51.990;5.926;2024-01-11T03:50:05;39.85;;;16.33;;
47335;SDS011;33068;51.990;5.926;2024-01-11T03:52:33;34.88;;;15.95;;
47335;SDS011;33068;51.990;5.926;2024-01-11T03:55:00;37.08;;;16.63;;
47335;SDS011;33068;51.990;5.926;2024-01-11T03:57:27;39.28;;;16.70;;
47335;SDS011;33068;51.990;5.926;2024-01-11T03:59:54;35.63;;;17.27;;
47335;SDS011;33068;51.990;5.926;2024-01-11T04:02:21;35.47;;;17.40;;
47335;SDS011;33068;51.990;5.926;2024-01-11T04:04:48;37.08;;;16.30;;
47335;SDS011;33068;51.990;5.926;2024-01-11T04:07:16;37.20;;;16.75;;
47335;SDS011;33068;51.990;5.926;2024-01-11T04:09:43;39.53;;;17.50;;
47335;SDS011;33068;51.990;5.926;2024-01-11T04:12:10;42.53;;;17.60;;
47335;SDS011;33068;51.990;5.926;2024-01-11T04:14:38;36.85;;;16.88;;
47335;SDS011;33068;51.990;5.926;2024-01-11T04:17:06;33.78;;;16.05;;
47335;SDS011;33068;51.990;5.926;2024-01-11T04:19:33;31.00;;;15.98;;
47335;SDS011;33068;51.990;5.926;2024-01-11T04:22:00;39.25;;;16.38;;
47335;SDS011;33068;51.990;5.926;2024-01-11T04:24:28;34.80;;;17.23;;
47335;SDS011;33068;51.990;5.926;2024-01-11T04:26:55;36.88;;;17.08;;
47335;SDS011;33068;51.990;5.926;2024-01-11T04:29:23;35.15;;;17.52;;
47335;SDS011;33068;51.990;5.926;2024-01-11T04:31:50;45.13;;;18.58;;
47335;SDS011;33068;51.990;5.926;2024-01-11T04:34:17;36.10;;;18.48;;
47335;SDS011;33068;51.990;5.926;2024-01-11T04:36:45;40.67;;;18.15;;
47335;SDS011;33068;51.990;5.926;2024-01-11T04:39:12;41.33;;;19.05;;
47335;SDS011;33068;51.990;5.926;2024-01-11T04:41:40;43.33;;;19.23;;
47335;SDS011;33068;51.990;5.926;2024-01-11T04:44:07;42.60;;;19.77;;
47335;SDS011;33068;51.990;5.926;2024-01-11T04:46:34;42.28;;;18.95;;
47335;SDS011;33068;51.990;5.926;2024-01-11T04:49:01;44.17;;;19.92;;
47335;SDS011;33068;51.990;5.926;2024-01-11T04:51:29;38.25;;;18.63;;
47335;SDS011;33068;51.990;5.926;2024-01-11T04:53:56;40.40;;;19.67;;
47335;SDS011;33068;51.990;5.926;2024-01-11T04:56:23;42.50;;;20.88;;
47335;SDS011;33068;51.990;5.926;2024-01-11T04:58:52;38.92;;;19.92;;
47335;SDS011;33068;51.990;5.926;2024-01-11T05:01:19;46.88;;;20.92;;
47335;SDS011;33068;51.990;5.926;2024-01-11T05:03:47;47.75;;;21.30;;
47335;SDS011;33068;51.990;5.926;2024-01-11T05:06:15;44.45;;;21.90;;
47335;SDS011;33068;51.990;5.926;2024-01-11T05:08:43;42.45;;;19.25;;
47335;SDS011;33068;51.990;5.926;2024-01-11T05:11:15;41.05;;;20.13;;
47335;SDS011;33068;51.990;5.926;2024-01-11T05:13:43;44.28;;;20.77;;
47335;SDS011;33068;51.990;5.926;2024-01-11T05:16:19;43.25;;;21.30;;
47335;SDS011;33068;51.990;5.926;2024-01-11T05:18:46;51.58;;;21.38;;
47335;SDS011;33068;51.990;5.926;2024-01-11T05:21:14;42.92;;;22.10;;
47335;SDS011;33068;51.990;5.926;2024-01-11T05:23:41;46.15;;;21.05;;
47335;SDS011;33068;51.990;5.926;2024-01-11T05:26:08;46.55;;;22.27;;
47335;SDS011;33068;51.990;5.926;2024-01-11T05:28:35;50.15;;;24.30;;
47335;SDS011;33068;51.990;5.926;2024-01-11T05:31:04;44.28;;;21.50;;
47335;SDS011;33068;51.990;5.926;2024-01-11T05:33:34;52.15;;;23.48;;
47335;SDS011;33068;51.990;5.926;2024-01-11T05:36:01;45.70;;;22.17;;
47335;SDS011;33068;51.990;5.926;2024-01-11T05:38:28;51.60;;;22.83;;
47335;SDS011;33068;51.990;5.926;2024-01-11T05:40:55;42.55;;;23.33;;
47335;SDS011;33068;51.990;5.926;2024-01-11T05:43:22;51.83;;;24.05;;
47335;SDS011;33068;51.990;5.926;2024-01-11T05:45:50;48.22;;;23.67;;
47335;SDS011;33068;51.990;5.926;2024-01-11T05:48:17;51.72;;;23.35;;
47335;SDS011;33068;51.990;5.926;2024-01-11T05:50:48;53.08;;;25.15;;
47335;SDS011;33068;51.990;5.926;2024-01-11T05:53:15;57.33;;;24.08;;
47335;SDS011;33068;51.990;5.926;2024-01-11T05:55:45;48.05;;;24.23;;
47335;SDS011;33068;51.990;5.926;2024-01-11T05:58:13;60.30;;;25.45;;
47335;SDS011;33068;51.990;5.926;2024-01-11T06:00:40;52.78;;;25.17;;
47335;SDS011;33068;51.990;5.926;2024-01-11T06:03:07;46.13;;;23.80;;
47335;SDS011;33068;51.990;5.926;2024-01-11T06:05:35;56.28;;;24.55;;
47335;SDS011;33068;51.990;5.926;2024-01-11T06:08:03;58.28;;;26.63;;
47335;SDS011;33068;51.990;5.926;2024-01-11T06:10:31;53.38;;;25.13;;
47335;SDS011;33068;51.990;5.926;2024-01-11T06:12:58;55.63;;;25.95;;
47335;SDS011;33068;51.990;5.926;2024-01-11T06:15:25;58.08;;;26.35;;
47335;SDS011;33068;51.990;5.926;2024-01-11T06:17:52;57.88;;;26.15;;
47335;SDS011;33068;51.990;5.926;2024-01-11T06:20:20;52.67;;;24.63;;
47335;SDS011;33068;51.990;5.926;2024-01-11T06:22:47;58.85;;;25.50;;
47335;SDS011;33068;51.990;5.926;2024-01-11T06:25:15;54.40;;;25.80;;
47335;SDS011;33068;51.990;5.926;2024-01-11T06:27:43;49.78;;;24.55;;
47335;SDS011;33068;51.990;5.926;2024-01-11T06:30:11;63.08;;;25.88;;
47335;SDS011;33068;51.990;5.926;2024-01-11T06:32:39;50.78;;;25.88;;
47335;SDS011;33068;51.990;5.926;2024-01-11T06:35:06;54.03;;;24.52;;
47335;SDS011;33068;51.990;5.926;2024-01-11T06:37:34;56.15;;;25.65;;
47335;SDS011;33068;51.990;5.926;2024-01-11T06:40:02;54.40;;;25.20;;
47335;SDS011;33068;51.990;5.926;2024-01-11T06:42:49;58.45;;;26.02;;
47335;SDS011;33068;51.990;5.926;2024-01-11T06:46:00;60.97;;;28.52;;
47335;SDS011;33068;51.990;5.926;2024-01-11T07:07:54;62.78;;;27.33;;
47335;SDS011;33068;51.990;5.926;2024-01-11T07:08:24;56.97;;;26.92;;
47335;SDS011;33068;51.990;5.926;2024-01-11T07:10:51;58.60;;;27.13;;
47335;SDS011;33068;51.990;5.926;2024-01-11T07:13:18;62.03;;;28.55;;
47335;SDS011;33068;51.990;5.926;2024-01-11T07:15:45;57.38;;;26.70;;
47335;SDS011;33068;51.990;5.926;2024-01-11T07:18:14;65.78;;;29.70;;
47335;SDS011;33068;51.990;5.926;2024-01-11T07:20:41;62.97;;;29.15;;
47335;SDS011;33068;51.990;5.926;2024-01-11T07:23:08;69.30;;;30.08;;
47335;SDS011;33068;51.990;5.926;2024-01-11T07:25:36;60.25;;;29.13;;
47335;SDS011;33068;51.990;5.926;2024-01-11T07:28:03;64.18;;;28.27;;
47335;SDS011;33068;51.990;5.926;2024-01-11T07:30:30;63.03;;;30.20;;
47335;SDS011;33068;51.990;5.926;2024-01-11T07:32:57;61.72;;;29.77;;
47335;SDS011;33068;51.990;5.926;2024-01-11T07:35:26;62.20;;;30.02;;
47335;SDS011;33068;51.990;5.926;2024-01-11T07:37:53;67.82;;;29.30;;
47335;SDS011;33068;51.990;5.926;2024-01-11T07:40:21;64.32;;;29.48;;
47335;SDS011;33068;51.990;5.926;2024-01-11T07:42:48;59.50;;;30.58;;
47335;SDS011;33068;51.990;5.926;2024-01-11T07:45:16;61.33;;;29.05;;
47335;SDS011;33068;51.990;5.926;2024-01-11T07:47:44;66.82;;;31.00;;
47335;SDS011;33068;51.990;5.926;2024-01-11T07:50:11;60.65;;;28.50;;
47335;SDS011;33068;51.990;5.926;2024-01-11T07:52:39;63.72;;;29.50;;
47335;SDS011;33068;51.990;5.926;2024-01-11T07:55:07;59.58;;;27.50;;
47335;SDS011;33068;51.990;5.926;2024-01-11T07:57:37;59.90;;;28.95;;
47335;SDS011;33068;51.990;5.926;2024-01-11T08:00:05;56.50;;;27.95;;
47335;SDS011;33068;51.990;5.926;2024-01-11T08:02:39;62.42;;;28.88;;
47335;SDS011;33068;51.990;5.926;2024-01-11T08:05:06;66.88;;;30.15;;
47335;SDS011;33068;51.990;5.926;2024-01-11T08:07:34;55.72;;;27.95;;
47335;SDS011;33068;51.990;5.926;2024-01-11T08:10:03;65.63;;;29.73;;
47335;SDS011;33068;51.990;5.926;2024-01-11T08:12:31;61.03;;;29.55;;
47335;SDS011;33068;51.990;5.926;2024-01-11T08:14:58;64.50;;;28.67;;
47335;SDS011;33068;51.990;5.926;2024-01-11T08:17:26;66.05;;;31.80;;
47335;SDS011;33068;51.990;5.926;2024-01-11T08:19:53;66.35;;;30.20;;
47335;SDS011;33068;51.990;5.926;2024-01-11T08:22:21;62.70;;;29.85;;
47335;SDS011;33068;51.990;5.926;2024-01-11T08:24:48;66.63;;;29.65;;
47335;SDS011;33068;51.990;5.926;2024-01-11T08:27:17;63.25;;;29.38;;
47335;SDS011;33068;51.990;5.926;2024-01-11T08:29:44;62.83;;;29.67;;
47335;SDS011;33068;51.990;5.926;2024-01-11T08:32:12;65.03;;;29.60;;
47335;SDS011;33068;51.990;5.926;2024-01-11T08:34:39;64.50;;;30.42;;
47335;SDS011;33068;51.990;5.926;2024-01-11T08:37:06;61.53;;;29.20;;
47335;SDS011;33068;51.990;5.926;2024-01-11T08:39:33;65.07;;;30.95;;
47335;SDS011;33068;51.990;5.926;2024-01-11T08:42:00;61.10;;;29.45;;
47335;SDS011;33068;51.990;5.926;2024-01-11T08:44:28;65.85;;;30.88;;
47335;SDS011;33068;51.990;5.926;2024-01-11T08:46:56;68.38;;;31.88;;
47335;SDS011;33068;51.990;5.926;2024-01-11T08:49:26;66.05;;;31.52;;
47335;SDS011;33068;51.990;5.926;2024-01-11T08:51:54;68.80;;;31.48;;
47335;SDS011;33068;51.990;5.926;2024-01-11T08:54:22;66.68;;;31.08;;
47335;SDS011;33068;51.990;5.926;2024-01-11T08:56:49;70.22;;;33.28;;
47335;SDS011;33068;51.990;5.926;2024-01-11T08:59:16;68.28;;;33.05;;
47335;SDS011;33068;51.990;5.926;2024-01-11T09:01:45;69.38;;;32.05;;
47335;SDS011;33068;51.990;5.926;2024-01-11T09:04:12;70.88;;;34.20;;
47335;SDS011;33068;51.990;5.926;2024-01-11T09:06:39;70.97;;;31.92;;
47335;SDS011;33068;51.990;5.926;2024-01-11T09:09:06;65.97;;;31.27;;
47335;SDS011;33068;51.990;5.926;2024-01-11T09:11:35;79.35;;;35.40;;
47335;SDS011;33068;51.990;5.926;2024-01-11T09:14:02;72.18;;;33.13;;
47335;SDS011;33068;51.990;5.926;2024-01-11T09:16:29;72.47;;;33.28;;
47335;SDS011;33068;51.990;5.926;2024-01-11T09:18:58;73.00;;;32.63;;
47335;SDS011;33068;51.990;5.926;2024-01-11T09:21:25;71.07;;;31.00;;
47335;SDS011;33068;51.990;5.926;2024-01-11T09:23:53;71.45;;;33.05;;
47335;SDS011;33068;51.990;5.926;2024-01-11T09:26:20;66.18;;;32.38;;
47335;SDS011;33068;51.990;5.926;2024-01-11T09:28:48;69.50;;;32.60;;
47335;SDS011;33068;51.990;5.926;2024-01-11T09:31:15;64.35;;;30.98;;
47335;SDS011;33068;51.990;5.926;2024-01-11T09:33:42;65.80;;;30.58;;
47335;SDS011;33068;51.990;5.926;2024-01-11T09:36:12;65.57;;;30.13;;
47335;SDS011;33068;51.990;5.926;2024-01-11T09:38:39;63.20;;;30.15;;
47335;SDS011;33068;51.990;5.926;2024-01-11T09:41:07;65.80;;;30.35;;
47335;SDS011;33068;51.990;5.926;2024-01-11T09:43:37;65.07;;;30.05;;
47335;SDS011;33068;51.990;5.926;2024-01-11T09:46:04;61.70;;;28.48;;
47335;SDS011;33068;51.990;5.926;2024-01-11T09:48:32;60.25;;;28.33;;
47335;SDS011;33068;51.990;5.926;2024-01-11T09:51:01;67.63;;;29.67;;
47335;SDS011;33068;51.990;5.926;2024-01-11T09:53:30;59.63;;;29.08;;
47335;SDS011;33068;51.990;5.926;2024-01-11T09:55:59;60.90;;;29.17;;
47335;SDS011;33068;51.990;5.926;2024-01-11T09:58:26;66.57;;;29.35;;
47335;SDS011;33068;51.990;5.926;2024-01-11T10:00:55;57.72;;;28.15;;
47335;SDS011;33068;51.990;5.926;2024-01-11T10:03:24;54.40;;;27.10;;
47335;SDS011;33068;51.990;5.926;2024-01-11T10:05:53;58.08;;;29.27;;
47335;SDS011;33068;51.990;5.926;2024-01-11T10:08:23;59.10;;;28.15;;
47335;SDS011;33068;51.990;5.926;2024-01-11T10:10:52;59.15;;;29.08;;
47335;SDS011;33068;51.990;5.926;2024-01-11T10:13:24;61.85;;;29.65;;
47335;SDS011;33068;51.990;5.926;2024-01-11T10:15:57;56.92;;;28.20;;
47335;SDS011;33068;51.990;5.926;2024-01-11T10:18:32;51.40;;;26.35;;
47335;SDS011;33068;51.990;5.926;2024-01-11T10:21:00;59.20;;;28.95;;
47335;SDS011;33068;51.990;5.926;2024-01-11T10:23:27;61.75;;;29.23;;
47335;SDS011;33068;51.990;5.926;2024-01-11T10:25:57;52.20;;;26.52;;
47335;SDS011;33068;51.990;5.926;2024-01-11T10:28:24;52.97;;;26.63;;
47335;SDS011;33068;51.990;5.926;2024-01-11T10:30:52;55.20;;;27.08;;
47335;SDS011;33068;51.990;5.926;2024-01-11T10:33:19;49.13;;;24.48;;
47335;SDS011;33068;51.990;5.926;2024-01-11T10:35:47;51.95;;;24.98;;
47335;SDS011;33068;51.990;5.926;2024-01-11T10:38:15;52.00;;;24.08;;
47335;SDS011;33068;51.990;5.926;2024-01-11T10:40:43;50.42;;;23.38;;
47335;SDS011;33068;51.990;5.926;2024-01-11T10:43:13;46.15;;;21.40;;
47335;SDS011;33068;51.990;5.926;2024-01-11T10:45:46;43.03;;;20.33;;
47335;SDS011;33068;51.990;5.926;2024-01-11T10:48:19;37.05;;;17.10;;
47335;SDS011;33068;51.990;5.926;2024-01-11T10:50:49;40.05;;;17.92;;
47335;SDS011;33068;51.990;5.926;2024-01-11T10:53:25;36.67;;;16.60;;
47335;SDS011;33068;51.990;5.926;2024-01-11T10:55:58;35.35;;;15.95;;
47335;SDS011;33068;51.990;5.926;2024-01-11T10:58:27;31.50;;;14.48;;
47335;SDS011;33068;51.990;5.926;2024-01-11T11:00:54;36.53;;;14.98;;
47335;SDS011;33068;51.990;5.926;2024-01-11T11:03:23;34.40;;;15.18;;
47335;SDS011;33068;51.990;5.926;2024-01-11T11:05:53;36.83;;;15.10;;
47335;SDS011;33068;51.990;5.926;2024-01-11T11:08:22;46.10;;;18.13;;
47335;SDS011;33068;51.990;5.926;2024-01-11T11:10:51;43.15;;;17.40;;
47335;SDS011;33068;51.990;5.926;2024-01-11T11:13:22;43.75;;;17.35;;
47335;SDS011;33068;51.990;5.926;2024-01-11T11:15:51;47.20;;;17.90;;
47335;SDS011;33068;51.990;5.926;2024-01-11T11:18:18;54.13;;;19.20;;
47335;SDS011;33068;51.990;5.926;2024-01-11T11:20:46;50.45;;;18.48;;
47335;SDS011;33068;51.990;5.926;2024-01-11T11:23:16;52.22;;;19.17;;
47335;SDS011;33068;51.990;5.926;2024-01-11T11:25:45;50.17;;;19.20;;
47335;SDS011;33068;51.990;5.926;2024-01-11T11:28:13;52.72;;;20.02;;
47335;SDS011;33068;51.990;5.926;2024-01-11T11:30:42;50.85;;;18.50;;
47335;SDS011;33068;51.990;5.926;2024-01-11T11:33:16;54.38;;;19.33;;
47335;SDS011;33068;51.990;5.926;2024-01-11T11:35:45;51.00;;;18.42;;
47335;SDS011;33068;51.990;5.926;2024-01-11T11:38:17;53.38;;;18.98;;
47335;SDS011;33068;51.990;5.926;2024-01-11T11:40:46;54.53;;;20.00;;
47335;SDS011;33068;51.990;5.926;2024-01-11T11:43:15;51.60;;;19.55;;
47335;SDS011;33068;51.990;5.926;2024-01-11T11:45:44;49.55;;;18.85;;
47335;SDS011;33068;51.990;5.926;2024-01-11T11:51:15;52.70;;;18.60;;
47335;SDS011;33068;51.990;5.926;2024-01-11T11:53:45;53.17;;;19.33;;
47335;SDS011;33068;51.990;5.926;2024-01-11T11:56:13;50.53;;;18.52;;
47335;SDS011;33068;51.990;5.926;2024-01-11T11:58:42;58.40;;;20.13;;
47335;SDS011;33068;51.990;5.926;2024-01-11T12:01:10;47.05;;;18.42;;
47335;SDS011;33068;51.990;5.926;2024-01-11T12:03:38;53.45;;;18.42;;
47335;SDS011;33068;51.990;5.926;2024-01-11T12:06:07;55.70;;;20.60;;
47335;SDS011;33068;51.990;5.926;2024-01-11T12:08:37;50.42;;;18.73;;
47335;SDS011;33068;51.990;5.926;2024-01-11T12:11:08;48.75;;;18.55;;
47335;SDS011;33068;51.990;5.926;2024-01-11T12:13:35;49.50;;;18.63;;
47335;SDS011;33068;51.990;5.926;2024-01-11T12:16:03;50.97;;;18.92;;
47335;SDS011;33068;51.990;5.926;2024-01-11T12:18:30;48.10;;;17.65;;
47335;SDS011;33068;51.990;5.926;2024-01-11T12:20:57;45.38;;;16.88;;
47335;SDS011;33068;51.990;5.926;2024-01-11T12:23:24;47.83;;;19.45;;
47335;SDS011;33068;51.990;5.926;2024-01-11T12:25:56;50.05;;;18.13;;
47335;SDS011;33068;51.990;5.926;2024-01-11T12:28:23;51.00;;;19.30;;
47335;SDS011;33068;51.990;5.926;2024-01-11T12:30:50;46.50;;;17.50;;
47335;SDS011;33068;51.990;5.926;2024-01-11T12:33:18;42.83;;;16.90;;
47335;SDS011;33068;51.990;5.926;2024-01-11T12:35:46;49.55;;;19.50;;
47335;SDS011;33068;51.990;5.926;2024-01-11T12:38:13;50.08;;;18.25;;
47335;SDS011;33068;51.990;5.926;2024-01-11T12:40:40;43.63;;;17.33;;
47335;SDS011;33068;51.990;5.926;2024-01-11T12:43:10;43.42;;;18.67;;
47335;SDS011;33068;51.990;5.926;2024-01-11T12:45:38;44.45;;;16.73;;
47335;SDS011;33068;51.990;5.926;2024-01-11T12:48:07;47.88;;;19.15;;
47335;SDS011;33068;51.990;5.926;2024-01-11T12:50:35;49.88;;;19.15;;
47335;SDS011;33068;51.990;5.926;2024-01-11T12:53:09;43.55;;;17.48;;
47335;SDS011;33068;51.990;5.926;2024-01-11T12:55:43;46.70;;;17.88;;
47335;SDS011;33068;51.990;5.926;2024-01-11T12:58:11;44.25;;;16.85;;
47335;SDS011;33068;51.990;5.926;2024-01-11T13:00:39;41.83;;;17.10;;
47335;SDS011;33068;51.990;5.926;2024-01-11T13:03:06;42.80;;;17.08;;
47335;SDS011;33068;51.990;5.926;2024-01-11T13:05:34;39.90;;;16.23;;
47335;SDS011;33068;51.990;5.926;2024-01-11T13:08:02;42.90;;;16.80;;
47335;SDS011;33068;51.990;5.926;2024-01-11T13:10:34;40.35;;;17.10;;
47335;SDS011;33068;51.990;5.926;2024-01-11T13:13:02;45.28;;;17.00;;
47335;SDS011;33068;51.990;5.926;2024-01-11T13:15:31;47.88;;;16.33;;
47335;SDS011;33068;51.990;5.926;2024-01-11T13:17:59;43.33;;;17.98;;
47335;SDS011;33068;51.990;5.926;2024-01-11T13:20:26;44.08;;;16.20;;
47335;SDS011;33068;51.990;5.926;2024-01-11T13:25:39;47.57;;;17.27;;
47335;SDS011;33068;51.990;5.926;2024-01-11T13:28:07;44.67;;;17.15;;
47335;SDS011;33068;51.990;5.926;2024-01-11T13:30:37;40.88;;;16.48;;
47335;SDS011;33068;51.990;5.926;2024-01-11T13:33:05;41.47;;;16.55;;
47335;SDS011;33068;51.990;5.926;2024-01-11T13:35:33;41.17;;;17.33;;
47335;SDS011;33068;51.990;5.926;2024-01-11T13:38:00;41.90;;;16.75;;
47335;SDS011;33068;51.990;5.926;2024-01-11T13:40:28;42.00;;;18.38;;
47335;SDS011;33068;51.990;5.926;2024-01-11T13:42:55;45.13;;;16.77;;
47335;SDS011;33068;51.990;5.926;2024-01-11T13:45:22;40.20;;;15.75;;
47335;SDS011;33068;51.990;5.926;2024-01-11T13:47:50;45.63;;;18.23;;
47335;SDS011;33068;51.990;5.926;2024-01-11T13:50:19;42.50;;;17.30;;
47335;SDS011;33068;51.990;5.926;2024-01-11T13:52:46;40.05;;;17.02;;
47335;SDS011;33068;51.990;5.926;2024-01-11T13:55:13;42.75;;;18.15;;
47335;SDS011;33068;51.990;5.926;2024-01-11T13:57:40;40.67;;;16.90;;
47335;SDS011;33068;51.990;5.926;2024-01-11T14:00:08;42.55;;;16.15;;
47335;SDS011;33068;51.990;5.926;2024-01-11T14:02:37;37.90;;;17.27;;
47335;SDS011;33068;51.990;5.926;2024-01-11T14:05:06;39.70;;;17.50;;
47335;SDS011;33068;51.990;5.926;2024-01-11T14:07:37;45.88;;;17.23;;
47335;SDS011;33068;51.990;5.926;2024-01-11T14:10:05;36.13;;;15.57;;
47335;SDS011;33068;51.990;5.926;2024-01-11T14:12:33;37.65;;;15.73;;
47335;SDS011;33068;51.990;5.926;2024-01-11T14:15:01;40.47;;;15.57;;
47335;SDS011;33068;51.990;5.926;2024-01-11T14:17:28;40.30;;;15.75;;
47335;SDS011;33068;51.990;5.926;2024-01-11T14:19:56;45.53;;;17.13;;
47335;SDS011;33068;51.990;5.926;2024-01-11T14:22:24;45.17;;;18.25;;
47335;SDS011;33068;51.990;5.926;2024-01-11T14:24:51;40.08;;;17.40;;
47335;SDS011;33068;51.990;5.926;2024-01-11T14:27:19;41.53;;;17.15;;
47335;SDS011;33068;51.990;5.926;2024-01-11T14:29:46;48.30;;;18.33;;
47335;SDS011;33068;51.990;5.926;2024-01-11T14:32:14;41.38;;;16.17;;
47335;SDS011;33068;51.990;5.926;2024-01-11T14:34:41;44.78;;;16.75;;
47335;SDS011;33068;51.990;5.926;2024-01-11T14:37:09;46.03;;;18.40;;
47335;SDS011;33068;51.990;5.926;2024-01-11T14:39:38;43.13;;;17.35;;
47335;SDS011;33068;51.990;5.926;2024-01-11T14:42:05;47.67;;;18.52;;
47335;SDS011;33068;51.990;5.926;2024-01-11T14:44:34;40.95;;;15.98;;
47335;SDS011;33068;51.990;5.926;2024-01-11T14:47:02;41.72;;;17.48;;
47335;SDS011;33068;51.990;5.926;2024-01-11T14:49:30;44.35;;;18.50;;